Time;durP1;ratioP1;P1;durP2;ratioP2;P2;SDS_P1;SDS_P2;PMS_P1;PMS_P2;Temp;Humidity;BMP_temperature;BMP_pressure;BME280_temperature;BME280_humidity;BME280_pressure;Samples;Min_cycle;Max_cycle;Signal;HPM_P1;HPM_P2
2021/10/15 00:01:10;;;;;;;11.38;7.35;;;;;;;12.35;100.00;100726.44;5289617;28;20266;-80
2021/10/15 00:03:40;;;;;;;10.60;7.45;;;;;;;12.39;100.00;100721.91;5288124;28;20394;-80
2021/10/15 00:06:11;;;;;;;10.68;7.10;;;;;;;12.40;100.00;100727.09;5271112;28;20023;-80
2021/10/15 00:08:41;;;;;;;10.38;7.20;;;;;;;12.32;100.00;100717.84;5271324;28;20031;-80
2021/10/15 00:11:11;;;;;;;10.32;7.28;;;;;;;12.30;100.00;100712.66;5290431;28;20069;-80
2021/10/15 00:13:42;;;;;;;12.77;6.88;;;;;;;12.28;100.00;100705.78;5273501;28;20042;-81
2021/10/15 00:16:12;;;;;;;10.27;7.40;;;;;;;12.29;100.00;100705.72;5290932;28;20057;-80
2021/10/15 00:18:42;;;;;;;12.73;7.47;;;;;;;12.29;100.00;100697.84;5292044;28;20066;-80
2021/10/15 00:21:13;;;;;;;9.90;6.95;;;;;;;12.30;100.00;100699.56;5269557;28;20399;-80
2021/10/15 00:23:43;;;;;;;12.07;6.90;;;;;;;12.40;100.00;100694.78;5272902;28;20046;-80
2021/10/15 00:26:13;;;;;;;12.65;6.93;;;;;;;12.44;100.00;100691.97;5290921;28;20688;-80
2021/10/15 00:28:43;;;;;;;10.00;6.57;;;;;;;12.34;100.00;100685.44;5292199;28;20032;-80
2021/10/15 00:31:14;;;;;;;10.52;6.38;;;;;;;12.32;100.00;100686.41;5291822;28;20402;-80
2021/10/15 00:33:44;;;;;;;11.32;6.68;;;;;;;12.25;100.00;100672.69;5273315;28;20177;-80
2021/10/15 00:36:15;;;;;;;10.90;7.03;;;;;;;12.30;100.00;100678.59;5292430;22;20051;-78
2021/10/15 00:38:45;;;;;;;12.23;6.68;;;;;;;12.27;100.00;100665.63;5277799;28;20020;-78
2021/10/15 00:41:16;;;;;;;10.85;6.30;;;;;;;12.27;100.00;100662.16;5273608;28;20451;-77
2021/10/15 00:44:10;;;;;;;10.60;6.55;;;;;;;12.43;100.00;100647.50;5273595;28;20048;-78
2021/10/15 00:46:42;;;;;;;10.45;6.07;;;;;;;12.47;100.00;100644.66;5274061;28;20089;-79
2021/10/15 00:49:14;;;;;;;8.73;6.05;;;;;;;12.43;100.00;100647.50;5273623;28;20107;-77
2021/10/15 00:51:45;;;;;;;10.68;5.78;;;;;;;12.43;100.00;100645.72;5247057;28;20020;-78
2021/10/15 00:54:16;;;;;;;9.40;6.00;;;;;;;12.41;100.00;100638.81;5269611;28;20020;-76
2021/10/15 00:56:47;;;;;;;9.90;6.22;;;;;;;12.44;100.00;100623.84;5273148;28;20120;-79
2021/10/15 00:59:17;;;;;;;11.90;6.55;;;;;;;12.52;100.00;100615.66;5273741;28;20024;-79
2021/10/15 01:01:48;;;;;;;10.20;6.40;;;;;;;12.47;100.00;100615.84;5274739;28;20394;-79
2021/10/15 01:04:18;;;;;;;10.32;6.32;;;;;;;12.50;100.00;100620.09;5273900;28;20024;-77
2021/10/15 01:06:49;;;;;;;10.77;7.03;;;;;;;12.42;100.00;100609.94;5277550;28;20034;-76
2021/10/15 01:09:22;;;;;;;9.80;5.72;;;;;;;12.50;100.00;100612.25;5275610;28;20062;-79
2021/10/15 01:11:55;;;;;;;9.40;5.70;;;;;;;12.47;100.00;100600.09;5273100;28;20043;-76
2021/10/15 01:14:27;;;;;;;10.15;5.82;;;;;;;12.45;100.00;100604.56;5271482;28;20035;-78
2021/10/15 01:17:02;;;;;;;8.48;5.63;;;;;;;12.44;100.00;100605.47;5273026;28;20279;-77
2021/10/15 01:19:33;;;;;;;;;;;;;;;12.43;100.00;100595.91;5272437;28;20467;-77
2021/10/15 01:22:06;;;;;;;10.13;5.30;;;;;;;12.37;100.00;100590.06;5274645;28;19912;-78
2021/10/15 01:24:37;;;;;;;11.32;6.30;;;;;;;12.37;100.00;100583.09;5276984;28;20027;-76
2021/10/15 01:27:09;;;;;;;10.35;6.32;;;;;;;12.41;100.00;100589.03;5276352;28;20035;-77
2021/10/15 01:29:39;;;;;;;8.63;5.72;;;;;;;12.35;100.00;100590.16;5275556;28;20062;-78
2021/10/15 01:32:11;;;;;;;10.82;6.00;;;;;;;12.32;100.00;100579.78;5275839;28;20455;-77
2021/10/15 01:34:42;;;;;;;9.30;5.85;;;;;;;12.38;100.00;100581.31;5256848;28;20277;-78
2021/10/15 01:37:13;;;;;;;9.70;6.05;;;;;;;12.27;100.00;100573.06;5278916;28;20522;-77
2021/10/15 01:39:43;;;;;;;8.85;5.70;;;;;;;12.28;100.00;100565.13;5277630;28;20032;-77
2021/10/15 01:45:03;;;;;;;12.15;5.80;;;;;;;12.31;100.00;100561.53;5274491;28;20035;-76
2021/10/15 01:47:33;;;;;;;9.82;5.88;;;;;;;12.26;100.00;100561.72;5275884;28;20028;-78
2021/10/15 01:50:04;;;;;;;10.13;5.88;;;;;;;12.27;100.00;100563.41;5276140;28;20032;-77
2021/10/15 01:52:34;;;;;;;10.30;6.03;;;;;;;12.40;100.00;100546.25;5260544;28;20090;-77
2021/10/15 01:55:06;;;;;;;8.32;5.40;;;;;;;12.40;100.00;100554.13;5258258;28;20035;-78
2021/10/15 01:57:37;;;;;;;9.55;5.45;;;;;;;12.39;100.00;100547.16;5274992;28;20441;-77
2021/10/15 02:00:09;;;;;;;7.90;5.47;;;;;;;12.40;100.00;100548.00;5275777;28;20090;-77
2021/10/15 02:02:41;;;;;;;8.80;5.10;;;;;;;12.39;100.00;100543.69;5275466;28;20024;-77
2021/10/15 02:05:15;;;;;;;7.03;4.80;;;;;;;12.38;100.00;100545.47;5274406;28;20035;-77
2021/10/15 02:07:46;;;;;;;8.07;5.40;;;;;;;12.27;100.00;100545.06;5261068;28;20538;-77
2021/10/15 02:10:17;;;;;;;8.85;5.55;;;;;;;12.37;100.00;100543.78;5274448;28;20067;-77
2021/10/15 02:12:48;;;;;;;8.23;5.25;;;;;;;12.43;100.00;100542.66;5275165;28;20036;-78
2021/10/15 02:15:19;;;;;;;11.00;5.90;;;;;;;12.41;100.00;100540.09;5274958;28;20033;-77
2021/10/15 02:17:50;;;;;;;8.60;5.55;;;;;;;12.47;100.00;100545.06;5274973;28;20115;-78
2021/10/15 02:20:20;;;;;;;9.85;5.22;;;;;;;12.39;100.00;100541.06;5274640;28;20020;-78
2021/10/15 02:22:51;;;;;;;9.27;5.78;;;;;;;12.43;100.00;100537.41;5278628;28;20587;-79
2021/10/15 02:25:23;;;;;;;8.50;5.55;;;;;;;12.36;100.00;100536.81;5276264;28;20035;-78
2021/10/15 02:27:54;;;;;;;7.93;5.70;;;;;;;12.46;100.00;100527.63;5273336;28;20034;-78
2021/10/15 02:30:24;;;;;;;9.57;5.90;;;;;;;12.42;100.00;100535.69;5257169;28;20088;-77
2021/10/15 02:32:55;;;;;;;10.48;5.63;;;;;;;12.39;100.00;100530.59;5275617;28;20058;-78
2021/10/15 02:35:25;;;;;;;9.27;5.95;;;;;;;12.38;100.00;100527.13;5273438;28;20030;-77
2021/10/15 02:38:01;;;;;;;8.90;5.63;;;;;;;12.37;100.00;100517.56;5261125;28;20072;-79
2021/10/15 02:40:31;;;;;;;11.35;6.03;;;;;;;12.35;100.00;100508.91;5274604;28;20020;-77
2021/10/15 02:43:01;;;;;;;10.35;5.65;;;;;;;12.34;100.00;100514.22;5274676;28;20536;-78
2021/10/15 02:45:36;;;;;;;10.23;5.93;;;;;;;12.39;100.00;100502.63;5275509;28;20028;-79
2021/10/15 02:48:07;;;;;;;9.30;5.65;;;;;;;12.47;100.00;100510.97;5275769;28;20031;-78
2021/10/15 02:50:37;;;;;;;10.35;6.32;;;;;;;12.37;100.00;100500.97;5258704;28;20038;-79
2021/10/15 02:53:07;;;;;;;9.77;5.93;;;;;;;12.38;100.00;100502.69;5280258;28;20032;-80
2021/10/15 02:55:38;;;;;;;11.10;5.82;;;;;;;12.48;100.00;100493.50;5277425;28;20031;-78
2021/10/15 02:58:08;;;;;;;8.60;5.57;;;;;;;12.51;100.00;100488.97;5257751;28;20024;-79
2021/10/15 03:00:38;;;;;;;10.30;5.10;;;;;;;12.55;100.00;100487.91;5276047;28;20038;-79
2021/10/15 03:03:09;;;;;;;9.18;5.35;;;;;;;12.49;100.00;100488.16;5276149;28;20194;-79
2021/10/15 03:05:39;;;;;;;7.68;5.07;;;;;;;12.51;100.00;100486.34;5278302;28;20036;-78
2021/10/15 03:08:09;;;;;;;8.30;5.07;;;;;;;12.43;100.00;100485.84;5280270;28;20154;-78
2021/10/15 03:10:40;;;;;;;10.63;6.22;;;;;;;12.49;100.00;100484.72;5257974;28;20028;-79
2021/10/15 03:13:10;;;;;;;8.25;5.40;;;;;;;12.51;100.00;100475.88;5257846;28;20024;-79
2021/10/15 03:15:40;;;;;;;11.13;5.82;;;;;;;12.56;100.00;100475.63;5278101;28;20024;-77
2021/10/15 03:18:11;;;;;;;10.80;6.35;;;;;;;12.49;100.00;100469.81;5280713;28;20020;-77
2021/10/15 03:20:42;;;;;;;11.43;6.25;;;;;;;12.52;100.00;100467.09;5278974;28;20036;-76
2021/10/15 03:23:12;;;;;;;11.75;6.40;;;;;;;12.49;100.00;100467.19;5282531;28;20502;-76
2021/10/15 03:25:43;;;;;;;12.68;6.43;;;;;;;12.55;100.00;100453.84;5280614;28;20063;-76
2021/10/15 03:28:13;;;;;;;15.40;6.68;;;;;;;12.50;100.00;100454.97;5278685;28;20035;-77
2021/10/15 03:30:43;;;;;;;11.55;6.05;;;;;;;12.50;100.00;100455.78;5278166;28;20032;-78
2021/10/15 03:33:13;;;;;;;15.80;6.55;;;;;;;12.50;100.00;100445.31;5277600;28;20043;-79
2021/10/15 03:35:44;;;;;;;13.25;6.25;;;;;;;12.60;100.00;100451.00;5279849;28;20023;-78
2021/10/15 03:38:14;;;;;;;10.80;5.70;;;;;;;12.50;100.00;100453.16;5282053;28;20058;-78
2021/10/15 03:40:44;;;;;;;12.98;5.35;;;;;;;12.42;100.00;100452.69;5274620;28;20035;-79
2021/10/15 03:43:15;;;;;;;10.38;5.80;;;;;;;12.42;100.00;100447.44;5278190;28;20061;-77
2021/10/15 03:45:45;;;;;;;9.93;5.63;;;;;;;12.52;100.00;100448.75;5277921;28;20040;-76
2021/10/15 03:48:15;;;;;;;9.40;5.57;;;;;;;12.46;100.00;100454.22;5279155;28;20028;-77
2021/10/15 03:50:45;;;;;;;11.65;5.90;;;;;;;12.53;100.00;100447.81;5278841;28;20111;-79
2021/10/15 03:53:16;;;;;;;10.77;5.93;;;;;;;12.55;100.00;100442.47;5282511;28;20028;-76
2021/10/15 03:55:46;;;;;;;10.25;6.10;;;;;;;12.52;100.00;100440.00;5279949;28;20275;-78
2021/10/15 03:58:16;;;;;;;11.45;5.45;;;;;;;12.48;100.00;100441.91;5258962;28;20031;-76
2021/10/15 04:00:47;;;;;;;10.57;5.53;;;;;;;12.43;100.00;100432.56;5278382;28;20149;-77
2021/10/15 04:03:17;;;;;;;9.52;5.55;;;;;;;12.48;100.00;100436.66;5278694;28;20028;-78
2021/10/15 04:05:47;;;;;;;10.80;5.55;;;;;;;12.47;100.00;100419.22;5278837;28;20021;-76
2021/10/15 04:08:17;;;;;;;10.57;5.85;;;;;;;12.52;100.00;100430.38;5281086;28;20042;-77
2021/10/15 04:10:48;;;;;;;13.10;5.70;;;;;;;12.49;100.00;100417.41;5275393;28;20324;-78
2021/10/15 04:13:18;;;;;;;12.10;5.38;;;;;;;12.53;100.00;100413.75;5277451;28;20023;-76
2021/10/15 04:15:48;;;;;;;10.02;5.45;;;;;;;12.61;100.00;100410.75;5277332;28;20027;-77
2021/10/15 04:18:19;;;;;;;11.10;5.70;;;;;;;12.65;100.00;100402.66;5259217;28;20024;-78
2021/10/15 04:20:49;;;;;;;7.78;4.97;;;;;;;12.74;100.00;100397.00;5278493;28;20035;-77
2021/10/15 04:23:20;;;;;;;10.00;5.55;;;;;;;12.64;100.00;100403.59;5280562;28;20045;-78
2021/10/15 04:25:50;;;;;;;9.02;5.18;;;;;;;12.65;100.00;100393.97;5278857;28;20024;-77
2021/10/15 04:28:20;;;;;;;10.38;4.75;;;;;;;12.67;100.00;100379.00;5276140;28;20066;-77
2021/10/15 04:30:51;;;;;;;9.63;5.28;;;;;;;12.66;100.00;100378.13;5276793;28;20032;-78
2021/10/15 04:33:21;;;;;;;9.30;4.80;;;;;;;12.66;100.00;100378.13;5278046;28;20077;-77
2021/10/15 04:35:52;;;;;;;9.73;4.88;;;;;;;12.64;100.00;100376.53;5278798;28;20049;-78
2021/10/15 04:38:22;;;;;;;9.18;4.72;;;;;;;12.57;100.00;100382.97;5281494;28;20079;-77
2021/10/15 04:40:52;;;;;;;10.77;4.65;;;;;;;12.60;100.00;100373.19;5279172;28;20051;-77
2021/10/15 04:43:23;;;;;;;8.02;4.85;;;;;;;12.68;100.00;100375.44;5279403;28;20028;-79
2021/10/15 04:45:54;;;;;;;10.70;5.05;;;;;;;12.55;100.00;100366.47;5277943;28;20195;-76
2021/10/15 04:48:24;;;;;;;15.05;5.70;;;;;;;12.56;100.00;100366.41;5275568;28;20035;-77
2021/10/15 04:50:55;;;;;;;9.70;5.00;;;;;;;12.57;100.00;100360.22;5283720;28;20024;-77
2021/10/15 04:53:25;;;;;;;11.80;4.55;;;;;;;12.60;100.00;100359.25;5276039;28;20340;-77
2021/10/15 04:55:56;;;;;;;10.93;5.07;;;;;;;12.55;100.00;100362.09;5277306;28;20032;-77
2021/10/15 04:58:26;;;;;;;12.77;5.50;;;;;;;12.52;100.00;100356.97;5276370;28;20024;-78
2021/10/15 05:00:56;;;;;;;10.50;5.05;;;;;;;12.60;100.00;100346.97;5277596;28;20035;-76
2021/10/15 05:03:26;;;;;;;9.00;4.55;;;;;;;12.55;100.00;100348.97;5277537;28;20031;-76
2021/10/15 05:05:57;;;;;;;9.95;5.15;;;;;;;12.55;100.00;100343.72;5277948;28;20028;-77
2021/10/15 05:08:32;;;;;;;11.50;4.53;;;;;;;12.55;100.00;100348.97;5280922;28;20016;-76
2021/10/15 05:11:03;;;;;;;6.15;4.22;;;;;;;12.61;100.00;100350.47;5259813;28;20050;-77
2021/10/15 05:13:34;;;;;;;9.60;4.53;;;;;;;12.60;100.00;100346.13;5277193;28;20633;-77
2021/10/15 05:16:05;;;;;;;8.10;4.50;;;;;;;12.55;100.00;100338.47;5276721;28;20065;-76
2021/10/15 05:18:36;;;;;;;8.05;4.50;;;;;;;12.51;100.00;100329.06;5279341;28;20103;-78
2021/10/15 05:21:06;;;;;;;8.38;4.20;;;;;;;12.50;100.00;100332.59;5281521;28;20024;-77
2021/10/15 05:23:37;;;;;;;9.32;4.55;;;;;;;12.52;100.00;100325.53;5281724;28;20016;-77
2021/10/15 05:26:07;;;;;;;9.70;4.03;;;;;;;12.65;100.00;100329.25;5278329;28;20032;-77
2021/10/15 05:28:37;;;;;;;9.13;3.90;;;;;;;12.61;100.00;100325.06;5276735;28;20460;-77
2021/10/15 05:31:07;;;;;;;7.07;4.07;;;;;;;12.69;100.00;100324.72;5276524;28;20198;-77
2021/10/15 05:33:38;;;;;;;7.50;3.97;;;;;;;12.65;100.00;100321.38;5276072;28;20044;-78
2021/10/15 05:36:08;;;;;;;8.13;3.92;;;;;;;12.61;100.00;100317.22;5276878;28;20019;-79
2021/10/15 05:38:38;;;;;;;8.93;3.80;;;;;;;12.60;100.00;100307.66;5255751;28;20020;-77
2021/10/15 05:41:08;;;;;;;5.22;3.60;;;;;;;12.64;100.00;100305.75;5269211;28;20472;-78
2021/10/15 05:43:39;;;;;;;7.82;3.97;;;;;;;12.56;100.00;100298.25;5270060;28;20025;-78
2021/10/15 05:46:09;;;;;;;6.72;3.35;;;;;;;12.46;100.00;100286.47;5269028;28;20183;-78
2021/10/15 05:48:39;;;;;;;7.80;3.50;;;;;;;12.49;100.00;100286.34;5272039;28;20483;-79
2021/10/15 05:51:10;;;;;;;6.63;3.33;;;;;;;12.35;100.00;100280.94;5278571;28;20263;-76
2021/10/15 05:53:41;;;;;;;6.88;3.35;;;;;;;12.43;100.00;100284.00;5273783;28;20084;-77
2021/10/15 05:59:09;;;;;;;5.88;3.15;;;;;;;12.36;100.00;100280.00;5274436;28;20075;-79
2021/10/15 06:01:39;;;;;;;4.10;2.45;;;;;;;12.19;100.00;100272.09;5276361;28;20019;-77
2021/10/15 06:04:55;;;;;;;4.63;2.65;;;;;;;12.16;100.00;100280.06;5256891;28;20043;-76
2021/10/15 06:15:35;;;;;;;5.00;3.10;;;;;;;12.15;100.00;100267.88;5279093;28;20034;-77
2021/10/15 06:18:13;;;;;;;5.88;3.15;;;;;;;12.18;100.00;100270.38;5280929;28;20083;-78
2021/10/15 06:20:44;;;;;;;4.47;2.80;;;;;;;12.24;100.00;100269.22;5285636;28;20067;-79
2021/10/15 06:23:15;;;;;;;5.00;2.50;;;;;;;12.29;100.00;100262.84;5277902;28;20019;-79
2021/10/15 06:25:47;;;;;;;4.97;2.33;;;;;;;12.25;100.00;100261.31;5279604;28;20445;-79
2021/10/15 06:28:18;;;;;;;4.53;2.35;;;;;;;12.36;100.00;100259.03;5280019;28;20028;-79
2021/10/15 06:30:49;;;;;;;3.33;2.22;;;;;;;12.30;100.00;100259.31;5280166;28;20043;-79
2021/10/15 06:33:19;;;;;;;5.68;2.10;;;;;;;12.21;100.00;100254.53;5277796;28;20070;-78
2021/10/15 06:35:50;;;;;;;4.95;2.22;;;;;;;12.29;100.00;100251.53;5277062;28;20047;-79
2021/10/15 06:38:20;;;;;;;3.45;2.05;;;;;;;12.37;100.00;100259.88;5307420;22;20047;-77
2021/10/15 06:40:50;;;;;;;3.75;2.13;;;;;;;12.32;100.00;100240.91;5287394;28;20057;-76
2021/10/15 06:43:21;;;;;;;3.05;1.58;;;;;;;12.40;100.00;100249.22;5287783;28;20023;-76
2021/10/15 06:45:52;;;;;;;4.07;1.70;;;;;;;12.43;100.00;100236.84;5268576;28;20042;-78
2021/10/15 06:48:22;;;;;;;3.88;2.08;;;;;;;12.41;100.00;100236.06;5287745;28;20486;-78
2021/10/15 06:50:53;;;;;;;5.03;2.00;;;;;;;12.31;100.00;100240.03;5289981;28;20039;-78
2021/10/15 06:53:23;;;;;;;3.42;2.00;;;;;;;12.35;100.00;100244.22;5291506;28;20026;-78
2021/10/15 06:55:53;;;;;;;5.45;1.95;;;;;;;12.44;100.00;100235.91;5290048;28;20095;-79
2021/10/15 06:58:23;;;;;;;5.00;2.20;;;;;;;12.51;100.00;100241.72;5291578;28;20035;-78
2021/10/15 07:00:54;;;;;;;3.58;1.98;;;;;;;12.39;100.00;100240.53;5291110;28;20145;-78
2021/10/15 07:03:24;;;;;;;3.45;2.20;;;;;;;12.50;100.00;100246.09;5290036;28;20023;-79
2021/10/15 07:05:54;;;;;;;4.47;2.00;;;;;;;12.52;100.00;100236.41;5289688;28;20114;-78
2021/10/15 07:08:25;;;;;;;5.07;2.25;;;;;;;12.55;100.00;100233.63;5290368;28;20031;-78
2021/10/15 07:10:56;;;;;;;4.32;1.80;;;;;;;12.52;100.00;100233.78;5289904;28;20027;-76
2021/10/15 07:13:26;;;;;;;3.83;1.50;;;;;;;12.50;100.00;100217.25;5287875;28;20027;-76
2021/10/15 07:15:57;;;;;;;4.85;1.98;;;;;;;12.45;100.00;100229.75;5289784;28;20027;-77
2021/10/15 07:18:27;;;;;;;4.82;1.80;;;;;;;12.45;100.00;100231.53;5286251;28;20062;-76
2021/10/15 07:20:57;;;;;;;3.15;1.90;;;;;;;12.60;100.00;100241.28;5287960;28;20031;-76
2021/10/15 07:23:28;;;;;;;4.38;1.98;;;;;;;12.67;100.00;100242.66;5287278;28;20019;-76
2021/10/15 07:26:00;;;;;;;5.97;1.95;;;;;;;12.67;99.35;100235.63;5287404;28;20379;-76
2021/10/15 07:28:30;;;;;;;4.10;1.77;;;;;;;12.77;99.35;100238.66;5289082;28;20038;-76
2021/10/15 07:31:00;;;;;;;4.40;1.80;;;;;;;12.58;100.00;100243.09;5289227;28;20023;-77
2021/10/15 07:33:31;;;;;;;4.35;2.00;;;;;;;12.55;100.00;100253.75;5288297;28;20015;-75
2021/10/15 07:36:01;;;;;;;5.65;2.20;;;;;;;12.56;100.00;100243.19;5287397;28;20088;-76
2021/10/15 07:38:31;;;;;;;3.60;2.10;;;;;;;12.64;100.00;100258.53;5286814;28;20024;-77
2021/10/15 07:41:04;;;;;;;3.65;2.05;;;;;;;12.75;100.00;100254.47;5288218;28;20551;-77
2021/10/15 07:43:34;;;;;;;7.53;2.63;;;;;;;12.95;99.10;100267.47;5288830;28;20080;-77
2021/10/15 07:46:04;;;;;;;5.63;2.60;;;;;;;13.00;99.01;100258.44;5286721;28;20957;-76
2021/10/15 07:48:36;;;;;;;5.50;2.33;;;;;;;13.05;96.85;100256.44;5286976;28;20474;-78
2021/10/15 07:51:07;;;;;;;4.75;2.60;;;;;;;13.18;96.98;100262.75;5288701;28;20154;-77
2021/10/15 07:53:37;;;;;;;5.90;2.30;;;;;;;13.30;97.05;100254.28;5289280;28;20020;-76
2021/10/15 07:56:08;;;;;;;5.22;2.20;;;;;;;13.58;94.98;100245.78;5270473;28;20030;-77
2021/10/15 07:58:39;;;;;;;5.90;2.22;;;;;;;14.20;91.51;100244.13;5288832;28;20119;-78
2021/10/15 08:01:09;;;;;;;4.80;2.63;;;;;;;14.23;92.22;100235.22;5288701;28;20106;-77
2021/10/15 08:03:39;;;;;;;5.15;2.22;;;;;;;14.19;90.97;100250.31;5288636;28;20079;-76
2021/10/15 08:06:10;;;;;;;6.05;2.45;;;;;;;14.48;89.99;100244.28;5284234;28;20059;-77
2021/10/15 08:08:40;;;;;;;5.15;2.47;;;;;;;14.45;90.00;100243.59;5288211;28;20402;-77
2021/10/15 08:11:11;;;;;;;5.85;2.10;;;;;;;14.55;89.52;100244.75;5287569;28;20028;-77
2021/10/15 08:13:41;;;;;;;5.18;2.53;;;;;;;14.17;92.99;100243.44;5270387;28;20027;-76
2021/10/15 08:16:12;;;;;;;4.82;2.15;;;;;;;14.68;89.96;100243.13;5287841;28;20032;-78
2021/10/15 08:18:42;;;;;;;5.50;2.28;;;;;;;14.53;90.71;100238.72;5288275;28;20039;-76
2021/10/15 08:21:13;;;;;;;5.63;2.58;;;;;;;14.22;90.96;100236.16;5289865;28;20115;-77
2021/10/15 08:23:45;;;;;;;7.63;2.50;;;;;;;14.11;91.70;100246.38;5285380;28;20455;-76
2021/10/15 08:26:15;;;;;;;6.93;2.90;;;;;;;13.91;93.15;100238.72;5277158;28;20123;-76
2021/10/15 08:28:47;;;;;;;6.45;2.53;;;;;;;13.94;92.89;100243.81;5285546;28;20350;-77
2021/10/15 08:31:17;;;;;;;7.70;2.65;;;;;;;13.93;93.06;100242.13;5265663;28;20019;-76
2021/10/15 08:33:47;;;;;;;5.82;2.35;;;;;;;13.91;92.97;100238.72;5285446;28;20081;-77
2021/10/15 08:36:17;;;;;;;7.00;2.60;;;;;;;13.81;93.68;100233.13;5287384;28;20490;-78
2021/10/15 08:38:49;;;;;;;7.55;2.90;;;;;;;13.78;93.67;100249.03;5269102;28;20802;-76
2021/10/15 08:41:23;;;;;;;7.72;2.67;;;;;;;13.91;93.54;100244.81;5288687;28;20044;-77
2021/10/15 08:43:55;;;;;;;5.68;2.60;;;;;;;13.69;93.55;100241.66;5270705;28;20178;-77
2021/10/15 08:46:25;;;;;;;5.82;2.67;;;;;;;13.47;95.13;100242.88;5289554;28;20015;-77
2021/10/15 08:48:56;;;;;;;6.93;2.88;;;;;;;13.41;97.02;100251.91;5287397;28;20031;-77
2021/10/15 08:51:26;;;;;;;6.35;2.70;;;;;;;13.30;96.50;100245.53;5287890;28;20028;-77
2021/10/15 08:53:58;;;;;;;5.88;2.97;;;;;;;13.15;96.38;100241.06;5270234;28;20038;-77
2021/10/15 08:56:31;;;;;;;6.20;2.90;;;;;;;13.17;97.15;100258.44;5286655;28;20020;-77
2021/10/15 08:59:04;;;;;;;11.18;3.00;;;;;;;13.28;97.19;100260.50;5285473;28;20482;-76
2021/10/15 09:01:48;;;;;;;4.93;2.58;;;;;;;13.42;97.43;100258.03;5286128;28;20031;-76
2021/10/15 09:04:20;;;;;;;5.90;2.78;;;;;;;13.51;95.98;100266.28;5277978;28;20027;-76
2021/10/15 09:06:50;;;;;;;6.68;2.65;;;;;;;13.37;97.43;100265.31;5284651;28;20036;-75
2021/10/15 09:09:28;;;;;;;5.53;2.60;;;;;;;13.40;98.48;100273.84;5286010;28;20305;-76
2021/10/15 09:12:18;;;;;;;7.22;3.08;;;;;;;13.20;100.00;100281.06;5285044;28;20032;-76
2021/10/15 09:14:48;;;;;;;6.47;3.03;;;;;;;13.07;100.00;100277.34;5278297;28;20511;-77
2021/10/15 09:17:31;;;;;;;9.23;3.22;;;;;;;12.91;100.00;100290.34;5289990;28;20023;-77
2021/10/15 09:20:03;;;;;;;5.78;3.08;;;;;;;12.76;100.00;100300.75;5288346;28;20089;-77
2021/10/15 09:22:35;;;;;;;7.07;3.03;;;;;;;12.53;100.00;100301.00;5289837;28;20494;-75
2021/10/15 09:25:08;;;;;;;5.18;2.75;;;;;;;12.44;100.00;100301.44;5290599;28;20024;-76
2021/10/15 09:27:44;;;;;;;6.32;3.15;;;;;;;12.31;100.00;100305.56;5290167;28;20028;-77
2021/10/15 09:30:20;;;;;;;6.78;2.70;;;;;;;12.24;100.00;100311.16;5283098;28;20027;-76
2021/10/15 09:32:50;;;;;;;;;;;;;;;12.27;100.00;100316.28;5279927;28;20031;-76
2021/10/15 09:35:26;;;;;;;5.60;2.90;;;;;;;12.16;100.00;100321.97;5283142;28;19916;-75
2021/10/15 09:38:03;;;;;;;4.55;2.63;;;;;;;12.18;100.00;100321.91;5263714;28;20027;-77
2021/10/15 09:40:37;;;;;;;5.55;3.13;;;;;;;12.08;100.00;100326.72;5284944;28;20027;-77
2021/10/15 09:43:11;;;;;;;5.20;2.92;;;;;;;11.99;100.00;100327.13;5266758;28;20138;-77
2021/10/15 09:45:49;;;;;;;8.32;3.10;;;;;;;12.06;100.00;100332.94;5287378;28;20020;-76
2021/10/15 09:48:26;;;;;;;5.60;3.45;;;;;;;11.99;100.00;100342.84;5280402;28;20501;-76
2021/10/15 09:51:19;;;;;;;8.25;3.60;;;;;;;11.93;100.00;100337.91;5287087;28;20019;-77
2021/10/15 09:54:16;;;;;;;10.93;3.55;;;;;;;11.84;100.00;100361.03;5282025;28;20023;-76
2021/10/15 09:56:52;;;;;;;5.20;3.40;;;;;;;12.00;100.00;100391.72;5286325;28;20647;-79
2021/10/15 09:59:22;;;;;;;5.95;3.33;;;;;;;11.86;100.00;100398.47;5294032;28;20024;-79
2021/10/15 10:01:52;;;;;;;6.20;3.30;;;;;;;11.86;100.00;100399.31;5294695;28;20030;-79
2021/10/15 10:04:23;;;;;;;7.20;3.30;;;;;;;11.89;100.00;100403.56;5291801;28;20067;-77
2021/10/15 10:06:53;;;;;;;6.40;3.00;;;;;;;11.78;100.00;100413.66;5290490;28;20031;-79
2021/10/15 10:09:24;;;;;;;3.92;2.00;;;;;;;11.75;100.00;100424.28;5296066;28;20029;-79
2021/10/15 10:11:54;;;;;;;3.70;1.88;;;;;;;11.74;100.00;100428.66;5277398;28;20032;-79
2021/10/15 10:14:24;;;;;;;5.28;2.83;;;;;;;11.82;100.00;100444.88;5272830;28;20122;-77
2021/10/15 10:16:56;;;;;;;5.32;2.60;;;;;;;11.87;100.00;100444.69;5289955;28;20100;-76
2021/10/15 10:19:29;;;;;;;7.55;3.17;;;;;;;11.91;100.00;100441.00;5288186;28;20027;-76
2021/10/15 10:22:00;;;;;;;5.13;3.45;;;;;;;11.94;100.00;100446.97;5272584;28;20042;-76
2021/10/15 10:24:33;;;;;;;3.60;2.30;;;;;;;11.94;100.00;100449.59;5291280;28;20024;-76
2021/10/15 10:27:04;;;;;;;4.55;2.50;;;;;;;12.08;100.00;100467.31;5290678;28;20421;-76
2021/10/15 10:29:44;;;;;;;3.55;1.98;;;;;;;12.07;100.00;100458.63;5290583;28;20110;-76
2021/10/15 10:32:17;;;;;;;4.65;2.88;;;;;;;12.14;100.00;100465.28;5290907;28;20031;-77
2021/10/15 10:34:47;;;;;;;4.63;2.47;;;;;;;12.22;100.00;100471.06;5267726;28;20401;-76
2021/10/15 10:37:19;;;;;;;3.40;1.92;;;;;;;12.21;100.00;100473.75;5287130;28;20028;-76
2021/10/15 10:40:06;;;;;;;2.60;1.80;;;;;;;12.15;100.00;100495.81;5287966;28;20023;-77
2021/10/15 10:43:15;;;;;;;5.55;1.92;;;;;;;12.21;100.00;100503.44;5288063;28;20103;-77
2021/10/15 10:46:08;;;;;;;3.17;1.27;;;;;;;12.10;100.00;100504.81;5181618;28;20553;-77
2021/10/15 10:48:51;;;;;;;15.60;7.40;;;;;;;12.18;100.00;100500.06;5180934;28;20120;-77
2021/10/15 10:51:23;;;;;;;8.23;4.72;;;;;;;12.33;100.00;100495.00;5263088;28;20040;-76
2021/10/15 10:54:03;;;;;;;6.70;3.60;;;;;;;12.33;100.00;100513.34;5287671;28;20046;-77
2021/10/15 10:56:39;;;;;;;2.70;1.30;;;;;;;12.15;100.00;100508.06;5288940;28;20466;-76
2021/10/15 10:59:22;;;;;;;3.10;1.25;;;;;;;12.14;100.00;100501.97;5289883;28;20108;-78
2021/10/15 11:01:55;;;;;;;3.78;1.48;;;;;;;12.10;100.00;100500.41;5287805;28;20045;-77
2021/10/15 11:04:31;;;;;;;3.65;1.00;;;;;;;12.19;100.00;100500.03;5288244;28;20024;-77
2021/10/15 11:07:04;;;;;;;;;;;;;;;12.17;100.00;100507.09;5287322;28;20019;-77
2021/10/15 11:09:48;;;;;;;2.03;0.95;;;;;;;12.04;100.00;100529.50;5288655;28;20383;-77
2021/10/15 11:12:27;;;;;;;1.33;0.70;;;;;;;12.17;100.00;100541.16;5288962;28;20058;-77
2021/10/15 11:15:03;;;;;;;3.08;2.13;;;;;;;12.09;100.00;100540.63;5286177;28;20050;-76
2021/10/15 11:17:36;;;;;;;1.60;1.10;;;;;;;12.17;100.00;100550.78;5291867;28;20028;-79
2021/10/15 11:20:17;;;;;;;2.40;1.10;;;;;;;11.99;100.00;100523.56;5291430;28;20032;-79
2021/10/15 11:23:02;;;;;;;2.30;1.00;;;;;;;12.06;100.00;100495.34;5291941;28;20072;-80
2021/10/15 11:25:38;;;;;;;4.15;1.92;;;;;;;12.06;100.00;100532.91;5293104;28;20057;-79
2021/10/15 11:28:14;;;;;;;2.53;1.58;;;;;;;12.00;100.00;100543.63;5293862;28;20252;-79
2021/10/15 11:30:47;;;;;;;3.08;1.70;;;;;;;11.88;100.00;100544.13;5294214;28;20118;-79
2021/10/15 11:33:20;;;;;;;2.65;1.40;;;;;;;11.88;100.00;100549.38;5290227;28;20541;-79
2021/10/15 11:35:52;;;;;;;5.38;2.90;;;;;;;11.96;100.00;100557.75;5287087;28;20428;-77
2021/10/15 11:38:27;;;;;;;4.78;2.50;;;;;;;11.87;100.00;100555.53;5291557;28;20122;-79
2021/10/15 11:41:03;;;;;;;3.17;1.40;;;;;;;11.87;100.00;100567.75;5293747;28;20270;-79
2021/10/15 11:43:36;;;;;;;3.53;1.15;;;;;;;11.81;100.00;100558.38;5291066;28;20028;-78
2021/10/15 11:46:14;;;;;;;3.00;1.77;;;;;;;11.72;100.00;100564.00;5272164;28;20019;-78
2021/10/15 11:48:49;;;;;;;1.00;0.63;;;;;;;11.91;100.00;100570.19;5284049;28;20482;-77
2021/10/15 11:51:23;;;;;;;1.65;0.60;;;;;;;11.85;100.00;100559.97;5284548;28;20027;-78
2021/10/15 11:53:58;;;;;;;1.48;0.80;;;;;;;11.89;100.00;100565.91;5290390;28;20031;-78